Terminal Aerodrome Forecast
Issued by NWS Sterling, VA

Current Version | Previous Version | Graphics & Text | Print | Product List | Glossary On
Versions: 1 2 3 4 5 6 7 8 9 10 11 12 13 14 15 16 17 18 19 20 21 22 23 24
538
FTUS41 KLWX 252048 AAA
TAFIAD
TAF AMD
KIAD 252048Z 2521/2624 29006KT 6SM -SHRA BR VCTS BKN040CB BKN200
     FM260100 24008G16KT P6SM BKN050
     FM261400 28012G22KT P6SM BKN050=

USA.gov is the U.S. government's official web portal to all federal, state and local government web resources and services.